Ningbo Seal — VRJD3 — position and weather

sailwx.info

Track history (hours):
 
Tides and Currents Weather Stations Pressure Air Temp Water Temp Dewpoint Dewpoint Depression Visibility Wind Speed Wind Dir Waves Ship Positions

Ningbo Seal

Last reported at 2014-Oct-20 07:33 UTC. Time now 2014-Oct-25 18:22 UTC.
Position N 46°12' W 124°21'.

Length 224 m; draft 13.1 m.

Type: Cargo ship. MMSI: 477628100.

Date/timePositionNaut miles runAvg speedWind from/ knotsBaromVisibWave heightAir tempDewpointWater temp
2014-Oct-20 07:33N 46°12' W 124°21'8 8.3
2014-Oct-20 06:33N 46°10' W 124°09'6 6.5
2014-Oct-20 05:33N 46°15' W 124°03'9 8.9
2014-Oct-20 04:33N 46°12' W 123°52'9 9.0
2014-Oct-20 03:33N 46°15' W 123°40'10 9.8
2014-Oct-20 02:33N 46°14' W 123°26'9 8.8
2014-Oct-20 01:33N 46°09' W 123°16'1010.6
2014-Oct-20 00:33N 46°08' W 123°00'10 9.8
2014-Oct-19 23:33N 46°01' W 122°51'1010.0
2014-Oct-19 22:33N 45°51' W 122°47'10 9.6
2014-Oct-19 21:33N 45°41' W 122°47'3 2.4
2014-Oct-19 20:31N 45°39' W 122°46'0 0.0
2014-Oct-19 19:31N 45°39' W 122°46'0 0.0
2014-Oct-19 18:31N 45°39' W 122°46'0 0.0
2014-Oct-19 17:31N 45°39' W 122°46'0 0.0
2014-Oct-19 16:31N 45°39' W 122°46'0 0.0
2014-Oct-19 15:31N 45°39' W 122°45'0 0.0
2014-Oct-19 14:31N 45°39' W 122°46'0 0.0
2014-Oct-19 13:31N 45°39' W 122°46'0 0.0
2014-Oct-19 12:31N 45°39' W 122°46'0 0.0
2014-Oct-19 11:31N 45°39' W 122°46'0 0.0
2014-Oct-19 10:33N 45°39' W 122°45'3 2.8
2014-Oct-19 09:33N 45°38' W 122°42'0 0.1
2014-Oct-19 08:33N 45°38' W 122°42'0 0.0
2014-Oct-19 07:33N 45°38' W 122°42'0 0.0
2014-Oct-19 06:33N 45°38' W 122°42'0 0.0
2014-Oct-19 05:33N 45°38' W 122°42'0 0.0
2014-Oct-19 04:33N 45°38' W 122°42'0 0.0
2014-Oct-19 03:33N 45°38' W 122°42'0 0.0
2014-Oct-19 02:33N 45°38' W 122°42'0 0.0
2014-Oct-18 15:04N 45°38' W 122°42'0 0.0
2014-Oct-18 02:24N 45°38' W 122°42'0 0.0
2014-Oct-18 01:33N 45°38' W 122°42'0 0.0
2014-Oct-18 00:33N 45°38' W 122°42'0 0.0
2014-Oct-17 23:33N 45°38' W 122°42'0 0.0
2014-Oct-17 22:33N 45°38' W 122°42'0 0.0
2014-Oct-17 21:33N 45°38' W 122°42'0 0.0
2014-Oct-17 20:33N 45°38' W 122°42'0 0.0
2014-Oct-17 19:33N 45°38' W 122°42'0 0.0
2014-Oct-17 18:33N 45°38' W 122°42'0 0.0
2014-Oct-17 17:33N 45°38' W 122°42'0 0.0
2014-Oct-17 16:33N 45°38' W 122°42'0 0.0
2014-Oct-17 15:33N 45°38' W 122°42'0 0.0
2014-Oct-17 14:33N 45°38' W 122°42'0 0.0
2014-Oct-17 13:33N 45°38' W 122°42'0 0.0
2014-Oct-17 12:33N 45°38' W 122°42'0 0.0
2014-Oct-17 11:33N 45°38' W 122°42'0 0.0
2014-Oct-17 10:33N 45°38' W 122°42'0 0.0
2014-Oct-17 09:30N 45°38' W 122°42'0 0.0
2014-Oct-17 08:33N 45°38' W 122°42'0 0.0
2014-Oct-17 07:33N 45°38' W 122°42'0 0.0
2014-Oct-17 06:33N 45°38' W 122°42'0 0.0
2014-Oct-17 05:33N 45°38' W 122°42'0 0.0
2014-Oct-17 04:33N 45°38' W 122°42'0 0.0
2014-Oct-17 03:33N 45°38' W 122°42'0 0.0
2014-Oct-17 02:33N 45°38' W 122°42'0 0.0
2014-Oct-17 01:33N 45°38' W 122°42'0 0.0
2014-Oct-17 00:33N 45°38' W 122°42'0 0.0
2014-Oct-16 23:33N 45°38' W 122°42'0 0.0
2014-Oct-16 22:33N 45°38' W 122°42'0 0.0
2014-Oct-16 21:33N 45°38' W 122°42'0 0.0
2014-Oct-16 20:33N 45°38' W 122°42'0 0.0
2014-Oct-16 19:33N 45°38' W 122°42'0 0.0
2014-Oct-16 18:33N 45°38' W 122°42'0 0.0
2014-Oct-16 17:33N 45°38' W 122°42'0 0.0
2014-Oct-16 16:33N 45°38' W 122°42'0 0.0
2014-Oct-16 15:33N 45°38' W 122°42'0 0.0
2014-Oct-16 14:33N 45°38' W 122°42'0 0.0
2014-Oct-16 13:33N 45°38' W 122°42'0 0.0
2014-Oct-16 12:33N 45°38' W 122°42'0 0.0
2014-Oct-16 11:33N 45°38' W 122°42'0 0.0
2014-Oct-16 10:33N 45°38' W 122°42'0 0.0
2014-Oct-16 09:33N 45°38' W 122°42'0 0.0
2014-Oct-16 08:33N 45°38' W 122°42'1 0.1
2014-Oct-15 16:03N 45°38' W 122°43'  
2014-Oct-12 03:27N 45°38' W 122°43'  
Track history (hours):
 
Tides and Currents Weather Stations Pressure Air Temp Water Temp Dewpoint Dewpoint Depression Visibility Wind Speed Wind Dir Waves Ship Positions

Ningbo Seal

Last reported at 2014-Oct-20 07:33 UTC. Time now 2014-Oct-25 18:22 UTC.
Position N 46°12' W 124°21'.

Length 224 m; draft 13.1 m.

Type: Cargo ship. MMSI: 477628100.

Date/timePositionNaut miles runAvg speedWind from/ knotsBaromVisibWave heightAir tempDewpointWater temp
2014-Oct-20 07:33N 46°12' W 124°21'8 8.3
2014-Oct-20 06:33N 46°10' W 124°09'6 6.5
2014-Oct-20 05:33N 46°15' W 124°03'9 8.9
2014-Oct-20 04:33N 46°12' W 123°52'9 9.0
2014-Oct-20 03:33N 46°15' W 123°40'10 9.8
2014-Oct-20 02:33N 46°14' W 123°26'9 8.8
2014-Oct-20 01:33N 46°09' W 123°16'1010.6
2014-Oct-20 00:33N 46°08' W 123°00'10 9.8
2014-Oct-19 23:33N 46°01' W 122°51'1010.0
2014-Oct-19 22:33N 45°51' W 122°47'10 9.6
2014-Oct-19 21:33N 45°41' W 122°47'3 2.4
2014-Oct-19 20:31N 45°39' W 122°46'0 0.0
2014-Oct-19 19:31N 45°39' W 122°46'0 0.0
2014-Oct-19 18:31N 45°39' W 122°46'0 0.0
2014-Oct-19 17:31N 45°39' W 122°46'0 0.0
2014-Oct-19 16:31N 45°39' W 122°46'0 0.0
2014-Oct-19 15:31N 45°39' W 122°45'0 0.0
2014-Oct-19 14:31N 45°39' W 122°46'0 0.0
2014-Oct-19 13:31N 45°39' W 122°46'0 0.0
2014-Oct-19 12:31N 45°39' W 122°46'0 0.0
2014-Oct-19 11:31N 45°39' W 122°46'0 0.0
2014-Oct-19 10:33N 45°39' W 122°45'3 2.8
2014-Oct-19 09:33N 45°38' W 122°42'0 0.1
2014-Oct-19 08:33N 45°38' W 122°42'0 0.0
2014-Oct-19 07:33N 45°38' W 122°42'0 0.0
2014-Oct-19 06:33N 45°38' W 122°42'0 0.0
2014-Oct-19 05:33N 45°38' W 122°42'0 0.0
2014-Oct-19 04:33N 45°38' W 122°42'0 0.0
2014-Oct-19 03:33N 45°38' W 122°42'0 0.0
2014-Oct-19 02:33N 45°38' W 122°42'0 0.0
2014-Oct-18 15:04N 45°38' W 122°42'0 0.0
2014-Oct-18 02:24N 45°38' W 122°42'0 0.0
2014-Oct-18 01:33N 45°38' W 122°42'0 0.0
2014-Oct-18 00:33N 45°38' W 122°42'0 0.0
2014-Oct-17 23:33N 45°38' W 122°42'0 0.0
2014-Oct-17 22:33N 45°38' W 122°42'0 0.0
2014-Oct-17 21:33N 45°38' W 122°42'0 0.0
2014-Oct-17 20:33N 45°38' W 122°42'0 0.0
2014-Oct-17 19:33N 45°38' W 122°42'0 0.0
2014-Oct-17 18:33N 45°38' W 122°42'0 0.0
2014-Oct-17 17:33N 45°38' W 122°42'0 0.0
2014-Oct-17 16:33N 45°38' W 122°42'0 0.0
2014-Oct-17 15:33N 45°38' W 122°42'0 0.0
2014-Oct-17 14:33N 45°38' W 122°42'0 0.0
2014-Oct-17 13:33N 45°38' W 122°42'0 0.0
2014-Oct-17 12:33N 45°38' W 122°42'0 0.0
2014-Oct-17 11:33N 45°38' W 122°42'0 0.0
2014-Oct-17 10:33N 45°38' W 122°42'0 0.0
2014-Oct-17 09:30N 45°38' W 122°42'0 0.0
2014-Oct-17 08:33N 45°38' W 122°42'0 0.0
2014-Oct-17 07:33N 45°38' W 122°42'0 0.0
2014-Oct-17 06:33N 45°38' W 122°42'0 0.0
2014-Oct-17 05:33N 45°38' W 122°42'0 0.0
2014-Oct-17 04:33N 45°38' W 122°42'0 0.0
2014-Oct-17 03:33N 45°38' W 122°42'0 0.0
2014-Oct-17 02:33N 45°38' W 122°42'0 0.0
2014-Oct-17 01:33N 45°38' W 122°42'0 0.0
2014-Oct-17 00:33N 45°38' W 122°42'0 0.0
2014-Oct-16 23:33N 45°38' W 122°42'0 0.0
2014-Oct-16 22:33N 45°38' W 122°42'0 0.0
2014-Oct-16 21:33N 45°38' W 122°42'0 0.0
2014-Oct-16 20:33N 45°38' W 122°42'0 0.0
2014-Oct-16 19:33N 45°38' W 122°42'0 0.0
2014-Oct-16 18:33N 45°38' W 122°42'0 0.0
2014-Oct-16 17:33N 45°38' W 122°42'0 0.0
2014-Oct-16 16:33N 45°38' W 122°42'0 0.0
2014-Oct-16 15:33N 45°38' W 122°42'0 0.0
2014-Oct-16 14:33N 45°38' W 122°42'0 0.0
2014-Oct-16 13:33N 45°38' W 122°42'0 0.0
2014-Oct-16 12:33N 45°38' W 122°42'0 0.0
2014-Oct-16 11:33N 45°38' W 122°42'0 0.0
2014-Oct-16 10:33N 45°38' W 122°42'0 0.0
2014-Oct-16 09:33N 45°38' W 122°42'0 0.0
2014-Oct-16 08:33N 45°38' W 122°42'1 0.1
2014-Oct-15 16:03N 45°38' W 122°43'  
2014-Oct-12 03:27N 45°38' W 122°43'  

Dump ship's entire track history